CYPD

Port Hawkesbury Airport

Port Hawkesbury, Nova Scotia, Canada
METAR CYPD 152000Z AUTO 16006KT 110V180 9SM FEW023 SCT110 SCT130 21/17 A2998 RMK SLP154 DENSITY ALT 1000FT
Observed Flight Rules
Jul-15 @ 20:00 UTC (48 minutes ago) Visual Flight Rules
Wind Visibility Clouds
160° at 6 knots 9 miles
  • Few at 2,300' AGL
  • Scattered at 11,000' AGL
  • Scattered at 13,000' AGL
Temperatures Readings
Current 21°C / 70°F
Dewpoint 17°C / 63°F
Humidity 78%
Altimeter 29.98" Hg
Pressure 1015.4 hPa
Elevation 114
METAR CYPD 152000Z AUTO 16006KT 110V180 9SM FEW023 SCT110 SCT130 21/17 A2998 RMK SLP154 DENSITY ALT 1000FT
Observed Flight Rules
Jul-15 @ 20:00 UTC
(48 minutes ago)
VFR
Wind Visibility
160° at 6 knots 9 miles
Clouds
  • Few at 2,300' AGL
  • Scattered at 11,000' AGL
  • Scattered at 13,000' AGL
Temperature Dewpoint
21°C / 70°F 17°C / 63°F
Humidity Altimeter Pressure
78% 29.98" Hg 1015.4 hPa